createdAt,value
2017-08-01T00:00:48.411Z,6.77
2017-08-01T00:03:17.964Z,6.47
2017-08-01T00:05:47.516Z,7.30
2017-08-01T00:08:18.010Z,5.57
2017-08-01T00:10:47.555Z,6.07
2017-08-01T00:13:17.121Z,6.27
2017-08-01T00:15:46.656Z,5.67
2017-08-01T00:18:16.238Z,7.30
2017-08-01T00:20:45.771Z,6.70
2017-08-01T00:23:16.098Z,7.30
2017-08-01T00:25:45.669Z,6.20
2017-08-01T00:28:15.196Z,6.57
2017-08-01T00:30:44.735Z,5.80
2017-08-01T00:33:13.980Z,6.03
2017-08-01T00:35:43.526Z,6.37
2017-08-01T00:38:13.093Z,5.73
2017-08-01T00:40:42.602Z,6.67
2017-08-01T00:43:12.164Z,5.20
2017-08-01T00:45:41.751Z,5.40
2017-08-01T00:48:11.307Z,6.10
2017-08-01T00:50:40.839Z,5.30
2017-08-01T00:53:10.388Z,6.13
2017-08-01T00:55:39.974Z,6.70
2017-08-01T00:58:09.508Z,5.73
2017-08-01T01:00:39.064Z,6.30
2017-08-01T01:03:08.589Z,5.50
2017-08-01T01:05:38.131Z,6.40
2017-08-01T01:08:07.690Z,6.10
2017-08-01T01:10:37.232Z,6.03
2017-08-01T01:13:06.791Z,6.33
2017-08-01T01:15:36.461Z,5.40
2017-08-01T01:18:06.790Z,6.63
2017-08-01T01:20:36.737Z,5.67
2017-08-01T01:23:06.277Z,5.93
2017-08-01T01:25:35.807Z,6.53
2017-08-01T01:28:05.382Z,5.73
2017-08-01T01:30:34.576Z,5.30
2017-08-01T01:33:03.622Z,5.97
2017-08-01T01:35:33.636Z,5.90
2017-08-01T01:38:02.513Z,5.80
2017-08-01T01:40:31.352Z,5.17
2017-08-01T01:43:00.205Z,6.63
2017-08-01T01:45:29.037Z,5.77
2017-08-01T01:47:57.877Z,5.57
2017-08-01T01:50:26.745Z,5.77
2017-08-01T01:52:55.923Z,5.60
2017-08-01T01:55:25.490Z,4.97
2017-08-01T01:57:55.137Z,6.13
2017-08-01T02:00:24.357Z,5.73
2017-08-01T02:02:53.868Z,6.60
2017-08-01T02:05:23.078Z,5.90
2017-08-01T02:07:53.296Z,6.90
2017-08-01T02:10:22.872Z,6.50
2017-08-01T02:12:52.397Z,6.83
2017-08-01T02:15:21.556Z,6.37
2017-08-01T02:17:50.479Z,6.90
2017-08-01T02:20:19.666Z,6.80
2017-08-01T02:22:48.509Z,6.97
2017-08-01T02:25:18.160Z,6.80
2017-08-01T02:27:47.721Z,7.90
2017-08-01T02:30:16.932Z,7.50
2017-08-01T02:32:46.581Z,6.57
2017-08-01T02:35:16.115Z,6.33
2017-08-01T02:37:45.326Z,6.90
2017-08-01T02:40:14.869Z,5.80
2017-08-01T02:42:44.291Z,6.40
2017-08-01T02:45:13.843Z,5.50
2017-08-01T02:47:43.428Z,7.20
2017-08-01T02:50:12.950Z,6.87
2017-08-01T02:52:42.602Z,7.40
2017-08-01T02:55:13.175Z,7.47
2017-08-01T02:57:42.715Z,6.40
2017-08-01T03:00:12.686Z,7.27
2017-08-01T03:02:42.229Z,6.27
2017-08-01T03:05:11.749Z,6.17
2017-08-01T03:07:41.307Z,7.47
2017-08-01T03:10:10.854Z,6.10
2017-08-01T03:12:40.372Z,6.40
2017-08-01T03:15:10.155Z,6.83
2017-08-01T03:17:39.694Z,6.70
2017-08-01T03:20:09.991Z,7.30
2017-08-01T03:22:39.563Z,7.37
2017-08-01T03:25:09.605Z,7.77
2017-08-01T03:27:39.161Z,6.97
2017-08-01T03:30:08.690Z,8.00
2017-08-01T03:32:38.252Z,7.60
2017-08-01T03:35:08.559Z,8.10
2017-08-01T03:37:37.751Z,7.87
2017-08-01T03:40:07.296Z,6.43
2017-08-01T03:42:36.872Z,7.17
2017-08-01T03:45:06.474Z,8.30
2017-08-01T03:47:36.020Z,9.90
2017-08-01T03:50:05.577Z,9.77
2017-08-01T03:52:35.121Z,9.57
2017-08-01T03:55:04.746Z,8.80
2017-08-01T03:57:34.065Z,9.00
2017-08-01T04:00:03.592Z,7.63
2017-08-01T04:02:33.171Z,9.00
2017-08-01T04:05:02.704Z,8.77
2017-08-01T04:07:32.233Z,7.30
2017-08-01T04:10:01.817Z,9.10
2017-08-01T04:12:31.366Z,9.30
2017-08-01T04:15:01.767Z,8.73
2017-08-01T04:17:31.128Z,7.77
2017-08-01T04:20:00.661Z,7.40
2017-08-01T04:22:30.194Z,8.30
2017-08-01T04:24:59.709Z,7.20
2017-08-01T04:27:29.251Z,7.30
2017-08-01T04:29:58.773Z,8.30
2017-08-01T04:32:28.298Z,8.03
2017-08-01T04:34:57.841Z,8.30
2017-08-01T04:37:28.140Z,9.27
2017-08-01T04:39:57.698Z,8.20
2017-08-01T04:42:27.238Z,7.90
2017-08-01T04:45:04.410Z,7.10
2017-08-01T04:47:33.946Z,6.80
2017-08-01T04:50:03.495Z,6.80
2017-08-01T04:52:33.053Z,6.93
2017-08-01T04:55:02.602Z,6.70
2017-08-01T04:57:32.921Z,6.37
2017-08-01T05:00:03.213Z,5.80
2017-08-01T05:02:32.455Z,6.30
2017-08-01T05:05:01.754Z,6.33
2017-08-01T05:07:32.095Z,6.10
2017-08-01T05:10:01.712Z,7.80
2017-08-01T05:12:31.256Z,6.93
2017-08-01T05:15:00.791Z,6.87
2017-08-01T05:17:31.121Z,7.90
2017-08-01T05:20:01.414Z,6.37
2017-08-01T05:22:31.029Z,7.50
2017-08-01T05:25:00.556Z,7.10
2017-08-01T05:27:30.868Z,7.67
2017-08-01T05:30:00.402Z,7.37
2017-08-01T05:32:29.975Z,8.80
2017-08-01T05:34:59.513Z,8.57
2017-08-01T05:37:29.725Z,7.57
2017-08-01T05:40:00.044Z,8.63
2017-08-01T05:42:30.343Z,7.07
2017-08-01T05:44:59.908Z,7.73
2017-08-01T05:47:29.456Z,7.00
2017-08-01T05:49:58.985Z,6.10
2017-08-01T05:52:28.489Z,6.47
2017-08-01T05:54:58.818Z,6.57
2017-08-01T05:57:29.112Z,4.87
2017-08-01T05:59:58.675Z,5.20
2017-08-01T06:02:28.067Z,5.27
2017-08-01T06:04:57.621Z,4.53
2017-08-01T06:07:27.590Z,4.77
2017-08-01T06:09:57.891Z,5.33
2017-08-01T06:12:28.223Z,4.57
2017-08-01T06:14:58.335Z,4.47
2017-08-01T06:17:27.867Z,3.90
2017-08-01T06:19:57.449Z,4.10
2017-08-01T06:22:26.966Z,3.33
2017-08-01T06:24:57.098Z,3.90
2017-08-01T06:27:27.405Z,4.30
2017-08-01T06:29:57.813Z,4.20
2017-08-01T06:32:27.352Z,4.10
2017-08-01T06:34:57.653Z,3.70
2017-08-01T06:37:27.182Z,3.67
2017-08-01T06:39:57.486Z,4.27
2017-08-01T06:42:27.033Z,3.53
2017-08-01T06:44:56.615Z,3.80
2017-08-01T06:47:27.022Z,3.53
2017-08-01T06:49:56.627Z,4.33
2017-08-01T06:52:26.192Z,3.70
2017-08-01T06:54:55.778Z,4.37
2017-08-01T06:57:25.322Z,4.07
2017-08-01T06:59:54.911Z,3.60
2017-08-01T07:02:24.434Z,4.40
2017-08-01T07:04:53.973Z,3.40
2017-08-01T07:07:24.257Z,3.27
2017-08-01T07:09:53.822Z,3.20
2017-08-01T07:12:24.127Z,3.57
2017-08-01T07:14:53.718Z,3.40
2017-08-01T07:17:23.237Z,3.60
2017-08-01T07:19:52.785Z,3.47
2017-08-01T07:22:22.474Z,4.57
2017-08-01T07:24:52.977Z,5.47
2017-08-01T07:27:22.335Z,5.70
2017-08-01T07:29:51.883Z,4.77
2017-08-01T07:32:21.441Z,5.50
2017-08-01T07:34:51.026Z,4.67
2017-08-01T07:37:21.320Z,4.10
2017-08-01T07:39:50.953Z,5.20
2017-08-01T07:42:20.486Z,5.23
2017-08-01T07:44:50.037Z,4.80
2017-08-01T07:47:19.600Z,4.17
2017-08-01T07:49:49.127Z,4.80
2017-08-01T07:52:18.689Z,4.40
2017-08-01T07:54:49.054Z,5.67
2017-08-01T07:57:18.585Z,4.60
2017-08-01T07:59:48.124Z,3.90
2017-08-01T08:02:17.665Z,4.03
2017-08-01T08:04:47.205Z,5.57
2017-08-01T08:07:16.758Z,4.40
2017-08-01T08:09:47.051Z,4.93
2017-08-01T08:12:16.627Z,5.30
2017-08-01T08:14:46.166Z,4.50
2017-08-01T08:17:15.714Z,5.13
2017-08-01T08:19:45.262Z,5.27
2017-08-01T08:22:14.809Z,5.20
2017-08-01T08:24:45.129Z,5.90
2017-08-01T08:27:15.432Z,5.10
2017-08-01T08:29:44.944Z,5.37
2017-08-01T08:32:14.142Z,6.33
2017-08-01T08:34:43.662Z,6.07
2017-08-01T08:37:13.890Z,6.90
2017-08-01T08:39:44.214Z,6.30
2017-08-01T08:42:15.274Z,6.57
2017-08-01T08:44:44.888Z,6.40
2017-08-01T08:47:14.397Z,6.20
2017-08-01T08:49:43.953Z,5.47
2017-08-01T08:52:13.501Z,5.83
2017-08-01T08:54:43.220Z,6.90
2017-08-01T08:57:12.787Z,7.90
2017-08-01T08:59:42.357Z,5.17
2017-08-01T09:02:11.933Z,6.17
2017-08-01T09:04:41.468Z,6.50
2017-08-01T09:07:11.018Z,5.17
2017-08-01T09:09:41.099Z,5.40
2017-08-01T09:12:10.702Z,5.80
2017-08-01T09:14:40.245Z,5.03
2017-08-01T09:17:10.154Z,5.67
2017-08-01T09:19:39.755Z,6.13
2017-08-01T09:22:09.354Z,6.20
2017-08-01T09:24:38.957Z,5.70
2017-08-01T09:27:08.518Z,5.40
2017-08-01T09:29:38.769Z,5.73
2017-08-01T09:32:08.292Z,5.23
2017-08-01T09:34:37.836Z,5.23
2017-08-01T09:37:08.109Z,5.43
2017-08-01T09:39:37.663Z,5.77
2017-08-01T09:42:07.982Z,4.93
2017-08-01T09:44:37.505Z,5.07
2017-08-01T09:47:07.810Z,5.17
2017-08-01T09:49:38.128Z,5.93
2017-08-01T09:52:07.734Z,5.93
2017-08-01T09:54:37.358Z,5.50
2017-08-01T09:57:06.914Z,4.90
2017-08-01T09:59:36.240Z,5.60
2017-08-01T10:02:05.436Z,6.20
2017-08-01T10:04:35.067Z,5.93
2017-08-01T10:07:04.621Z,5.67
2017-08-01T10:09:34.164Z,6.17
2017-08-01T10:12:03.703Z,5.67
2017-08-01T10:14:34.032Z,5.70
2017-08-01T10:17:04.142Z,6.97
2017-08-01T10:19:33.752Z,6.30
2017-08-01T10:22:03.277Z,5.80
2017-08-01T10:24:34.172Z,6.03
2017-08-01T10:27:03.689Z,6.37
2017-08-01T10:29:33.310Z,5.77
2017-08-01T10:32:03.608Z,5.03
2017-08-01T10:34:33.128Z,5.70
2017-08-01T10:37:02.676Z,5.93
2017-08-01T10:39:32.216Z,5.80
2017-08-01T10:42:01.736Z,5.73
2017-08-01T10:44:31.296Z,5.57
2017-08-01T10:47:00.818Z,5.47
2017-08-01T10:49:30.482Z,5.23
2017-08-01T10:52:00.022Z,5.67
2017-08-01T10:54:29.560Z,6.40
2017-08-01T10:56:59.135Z,6.40
2017-08-01T10:59:28.661Z,6.53
2017-08-01T11:01:58.176Z,6.53
2017-08-01T11:04:27.755Z,5.50
2017-08-01T11:06:57.302Z,6.03
2017-08-01T11:09:26.857Z,5.40
2017-08-01T11:11:56.389Z,5.50
2017-08-01T11:14:25.978Z,5.13
2017-08-01T11:16:55.175Z,5.77
2017-08-01T11:19:24.716Z,5.70
2017-08-01T11:21:54.266Z,6.40
2017-08-01T11:24:24.566Z,5.67
2017-08-01T11:26:54.845Z,5.40
2017-08-01T11:29:24.361Z,5.90
2017-08-01T11:31:54.809Z,5.20
2017-08-01T11:34:24.359Z,6.73
2017-08-01T11:36:54.635Z,5.50
2017-08-01T11:39:24.179Z,5.20
2017-08-01T11:41:53.718Z,5.40
2017-08-01T11:44:23.267Z,6.17
2017-08-01T11:46:52.831Z,5.10
2017-08-01T11:49:22.353Z,5.00
2017-08-01T11:51:51.715Z,4.83
2017-08-01T11:54:21.993Z,4.90
2017-08-01T11:56:51.546Z,5.80
2017-08-01T11:59:21.828Z,5.00
2017-08-01T12:01:51.393Z,5.37
2017-08-01T12:04:20.970Z,5.00
2017-08-01T12:06:50.518Z,4.60
2017-08-01T12:09:20.047Z,4.90
2017-08-01T12:11:49.563Z,4.07
2017-08-01T12:14:19.315Z,4.73
2017-08-01T12:16:49.580Z,4.23
2017-08-01T12:19:19.127Z,4.23
2017-08-01T12:21:48.754Z,3.73
2017-08-01T12:24:19.058Z,5.40
2017-08-01T12:26:48.580Z,5.50
2017-08-01T12:29:18.231Z,4.53
2017-08-01T12:31:47.853Z,4.80
2017-08-01T12:34:17.370Z,4.30
2017-08-01T12:36:46.906Z,4.53
2017-08-01T12:39:17.267Z,4.00
2017-08-01T12:41:46.804Z,4.17
2017-08-01T12:44:16.438Z,3.97
2017-08-01T12:46:45.982Z,3.37
2017-08-01T12:49:15.500Z,4.10
2017-08-01T12:51:45.172Z,4.87
2017-08-01T12:54:15.118Z,4.57
2017-08-01T12:56:44.888Z,4.30
2017-08-01T12:59:14.449Z,2.87
2017-08-01T13:01:44.010Z,4.30
2017-08-01T13:04:14.302Z,4.10
2017-08-01T13:06:43.855Z,3.93
2017-08-01T13:09:13.441Z,3.80
2017-08-01T13:11:42.961Z,3.80
2017-08-01T13:14:12.548Z,3.83
2017-08-01T13:16:42.083Z,4.57
2017-08-01T13:19:11.604Z,4.27
2017-08-01T13:21:41.163Z,3.87
2017-08-01T13:24:12.462Z,3.90
2017-08-01T13:26:41.986Z,4.57
2017-08-01T13:29:11.528Z,3.30
2017-08-01T13:31:41.061Z,4.00
2017-08-01T13:34:10.600Z,4.77
2017-08-01T13:36:40.160Z,4.00
2017-08-01T13:39:09.688Z,4.57
2017-08-01T13:41:40.008Z,4.57
2017-08-01T13:44:09.537Z,4.60
2017-08-01T13:46:39.108Z,3.93
2017-08-01T13:49:08.694Z,4.30
2017-08-01T13:51:38.299Z,4.73
2017-08-01T13:54:07.853Z,5.07
2017-08-01T13:56:37.406Z,3.90
2017-08-01T13:59:06.947Z,3.83
2017-08-01T14:01:37.254Z,3.97
2017-08-01T14:04:06.835Z,4.67
2017-08-01T14:06:36.680Z,4.30
2017-08-01T14:09:05.550Z,4.37
2017-08-01T14:11:35.764Z,3.20
2017-08-01T14:14:05.292Z,4.53
2017-08-01T14:16:34.848Z,4.10
2017-08-01T14:19:04.386Z,4.50
2017-08-01T14:21:33.926Z,4.27
2017-08-01T14:24:04.243Z,3.73
2017-08-01T14:26:33.846Z,3.77
2017-08-01T14:29:03.387Z,4.47
2017-08-01T14:31:32.996Z,3.87
2017-08-01T14:34:03.279Z,4.27
2017-08-01T14:36:32.788Z,5.90
2017-08-01T14:39:02.332Z,4.70
2017-08-01T14:41:31.866Z,4.37
2017-08-01T14:44:01.677Z,4.77
2017-08-01T14:46:31.217Z,4.40
2017-08-01T14:49:00.847Z,4.20
2017-08-01T14:51:31.159Z,3.93
2017-08-01T14:54:00.671Z,4.57
2017-08-01T14:56:30.626Z,4.43
2017-08-01T14:59:00.222Z,4.90
2017-08-01T15:01:31.582Z,4.50
2017-08-01T15:04:01.101Z,4.60
2017-08-01T15:06:30.646Z,4.13
2017-08-01T15:09:00.167Z,3.90
2017-08-01T15:11:29.705Z,4.67
2017-08-01T15:13:59.281Z,4.33
2017-08-01T15:16:28.938Z,4.27
2017-08-01T15:18:58.495Z,4.20
2017-08-01T15:21:28.850Z,4.00
2017-08-01T15:23:58.365Z,4.27
2017-08-01T15:26:27.560Z,4.07
2017-08-01T15:28:57.119Z,4.10
2017-08-01T15:31:26.658Z,3.63
2017-08-01T15:33:56.227Z,4.00
2017-08-01T15:36:25.400Z,4.03
2017-08-01T15:38:55.001Z,4.80
2017-08-01T15:41:24.575Z,4.80
2017-08-01T15:43:54.113Z,3.50
2017-08-01T15:46:23.658Z,4.43
2017-08-01T15:48:53.172Z,4.43
2017-08-01T15:51:22.734Z,3.30
2017-08-01T15:53:52.342Z,3.43
2017-08-01T15:56:21.876Z,4.30
2017-08-01T15:58:51.396Z,3.87
2017-08-01T16:01:20.934Z,4.43
2017-08-01T16:03:50.503Z,4.80
2017-08-01T16:06:20.102Z,3.40
2017-08-01T16:08:49.626Z,3.87
2017-08-01T16:11:19.177Z,4.17
2017-08-01T16:13:48.729Z,4.23
2017-08-01T16:16:18.305Z,4.13
2017-08-01T16:18:47.845Z,3.93
2017-08-01T16:21:17.110Z,4.23
2017-08-01T16:23:46.667Z,3.20
2017-08-01T16:26:16.211Z,3.60
2017-08-01T16:28:45.753Z,3.60
2017-08-01T16:31:15.478Z,3.87
2017-08-01T16:33:44.990Z,4.50
2017-08-01T16:36:14.148Z,3.73
2017-08-01T16:38:43.758Z,4.20
2017-08-01T16:41:13.286Z,4.67
2017-08-01T16:43:42.832Z,3.53
2017-08-01T16:46:12.347Z,4.47
2017-08-01T16:48:41.967Z,4.83
2017-08-01T16:51:11.179Z,4.40
2017-08-01T16:53:40.716Z,3.80
2017-08-01T16:56:10.233Z,4.37
2017-08-01T16:58:39.756Z,3.83
2017-08-01T17:01:09.294Z,3.50
2017-08-01T17:03:38.914Z,3.60
2017-08-01T17:06:08.450Z,4.00
2017-08-01T17:08:39.026Z,3.47
2017-08-01T17:11:08.326Z,4.00
2017-08-01T17:13:37.845Z,3.90
2017-08-01T17:16:07.405Z,4.13
2017-08-01T17:18:36.965Z,4.20
2017-08-01T17:21:06.506Z,3.97
2017-08-01T17:23:36.047Z,3.67
2017-08-01T17:26:06.365Z,3.63
2017-08-01T17:28:35.917Z,3.80
2017-08-01T17:31:07.062Z,4.20
2017-08-01T17:33:36.705Z,3.70
2017-08-01T17:36:06.375Z,4.00
2017-08-01T17:38:35.907Z,3.83
2017-08-01T17:41:05.593Z,4.40
2017-08-01T17:43:35.111Z,4.30
2017-08-01T17:46:04.612Z,4.97
2017-08-01T17:48:34.216Z,3.90
2017-08-01T17:51:03.778Z,4.20
2017-08-01T17:53:34.146Z,3.70
2017-08-01T17:56:03.674Z,4.60
2017-08-01T17:58:33.219Z,4.63
2017-08-01T18:01:02.755Z,4.87
2017-08-01T18:03:32.273Z,5.00
2017-08-01T18:06:01.852Z,5.17
2017-08-01T18:08:31.382Z,5.10
2017-08-01T18:11:00.931Z,4.90
2017-08-01T18:13:30.636Z,4.07
2017-08-01T18:16:00.208Z,4.40
2017-08-01T18:18:29.814Z,4.73
2017-08-01T18:20:59.325Z,3.73
2017-08-01T18:23:28.870Z,4.07
2017-08-01T18:25:58.376Z,3.70
2017-08-01T18:28:27.934Z,3.80
2017-08-01T18:30:57.480Z,4.80
2017-08-01T18:33:27.052Z,4.50
2017-08-01T18:35:56.571Z,4.20
2017-08-01T18:38:26.169Z,3.47
2017-08-01T18:40:55.693Z,4.07
2017-08-01T18:43:25.241Z,4.30
2017-08-01T18:45:55.575Z,4.50
2017-08-01T18:48:25.872Z,4.07
2017-08-01T18:50:55.431Z,3.60
2017-08-01T18:53:24.968Z,3.83
2017-08-01T18:55:54.548Z,4.97
2017-08-01T18:58:24.089Z,3.60
2017-08-01T19:00:53.775Z,4.77
2017-08-01T19:03:23.318Z,5.40
2017-08-01T19:05:52.858Z,5.50
2017-08-01T19:08:22.394Z,5.10
2017-08-01T19:10:52.035Z,4.80
2017-08-01T19:13:21.555Z,4.97
2017-08-01T19:15:51.094Z,5.30
2017-08-01T19:18:20.663Z,6.03
2017-08-01T19:20:50.173Z,5.30
2017-08-01T19:23:19.731Z,4.67
2017-08-01T19:25:49.302Z,6.77
2017-08-01T19:28:19.578Z,5.67
2017-08-01T19:30:49.147Z,5.00
2017-08-01T19:33:18.775Z,5.63
2017-08-01T19:35:49.185Z,5.40
2017-08-01T19:38:18.741Z,5.53
2017-08-01T19:40:48.272Z,6.70
2017-08-01T19:43:18.593Z,6.73
2017-08-01T19:45:48.126Z,6.77
2017-08-01T19:48:17.405Z,5.93
2017-08-01T19:50:47.939Z,6.50
2017-08-01T19:53:17.465Z,5.83
2017-08-01T19:55:47.868Z,4.77
2017-08-01T19:58:18.153Z,5.50
2017-08-01T20:00:47.707Z,5.40
2017-08-01T20:03:18.044Z,6.43
2017-08-01T20:05:47.580Z,8.47
2017-08-01T20:08:17.126Z,6.83
2017-08-01T20:10:46.717Z,7.30
2017-08-01T20:13:16.258Z,5.00
2017-08-01T20:15:46.686Z,5.83
2017-08-01T20:18:17.011Z,5.80
2017-08-01T20:20:47.506Z,6.37
2017-08-01T20:23:17.044Z,5.43
2017-08-01T20:25:47.339Z,6.03
2017-08-01T20:28:16.867Z,6.73
2017-08-01T20:30:46.390Z,6.50
2017-08-01T20:33:16.944Z,6.43
2017-08-01T20:35:46.490Z,5.63
2017-08-01T20:38:16.074Z,6.50
2017-08-01T20:40:45.601Z,6.00
2017-08-01T20:43:15.201Z,6.17
2017-08-01T20:45:44.761Z,5.87
2017-08-01T20:48:14.282Z,6.57
2017-08-01T20:50:43.816Z,5.97
2017-08-01T20:53:13.338Z,6.20
2017-08-01T20:55:42.871Z,7.40
2017-08-01T20:58:13.205Z,5.93
2017-08-01T21:00:43.508Z,6.60
2017-08-01T21:03:13.055Z,5.00
2017-08-01T21:05:42.600Z,6.07
2017-08-01T21:08:12.129Z,6.10
2017-08-01T21:10:42.536Z,7.20
2017-08-01T21:13:12.082Z,5.87
2017-08-01T21:15:41.616Z,6.20
2017-08-01T21:18:11.163Z,7.10
2017-08-01T21:20:40.707Z,7.13
2017-08-01T21:23:10.244Z,7.00
2017-08-01T21:25:39.844Z,7.20
2017-08-01T21:28:09.459Z,6.80
2017-08-01T21:30:39.009Z,6.63
2017-08-01T21:33:08.540Z,8.23
2017-08-01T21:35:38.076Z,9.47
2017-08-01T21:38:08.652Z,8.23
2017-08-01T21:40:39.001Z,9.47
2017-08-01T21:43:09.301Z,10.10
2017-08-01T21:45:39.639Z,8.67
2017-08-01T21:48:09.951Z,9.80
2017-08-01T21:50:39.541Z,12.63
2017-08-01T21:53:09.912Z,11.53
2017-08-01T21:55:39.478Z,11.83
2017-08-01T21:58:08.989Z,12.33
2017-08-01T22:00:38.560Z,10.47
2017-08-01T22:03:08.075Z,11.10
2017-08-01T22:05:37.415Z,9.07
2017-08-01T22:08:07.852Z,10.00
2017-08-01T22:10:38.150Z,8.90
2017-08-01T22:13:07.706Z,8.70
2017-08-01T22:15:37.368Z,8.00
2017-08-01T22:18:06.938Z,7.90
2017-08-01T22:20:36.471Z,9.57
2017-08-01T22:23:06.041Z,9.37
2017-08-01T22:25:35.593Z,8.07
2017-08-01T22:28:05.131Z,7.67
2017-08-01T22:30:35.410Z,8.40
2017-08-01T22:33:04.942Z,9.50
2017-08-01T22:35:34.515Z,8.47
2017-08-01T22:38:04.088Z,8.87
2017-08-01T22:40:33.933Z,7.60
2017-08-01T22:43:03.473Z,7.77
2017-08-01T22:45:33.082Z,7.80
2017-08-01T22:48:02.614Z,7.40
2017-08-01T22:50:33.017Z,8.03
2017-08-01T22:53:02.620Z,8.60
2017-08-01T22:55:32.163Z,7.97
2017-08-01T22:58:02.543Z,7.40
2017-08-01T23:00:32.166Z,7.70
2017-08-01T23:03:01.352Z,6.97
2017-08-01T23:05:30.953Z,6.67
2017-08-01T23:08:00.561Z,6.20
2017-08-01T23:10:30.083Z,6.13
2017-08-01T23:12:59.634Z,6.23
2017-08-01T23:15:29.158Z,6.30
2017-08-01T23:17:58.759Z,5.97
2017-08-01T23:20:28.321Z,6.77
2017-08-01T23:22:57.828Z,5.97
2017-08-01T23:25:27.435Z,6.77
2017-08-01T23:27:56.602Z,6.10
2017-08-01T23:30:26.144Z,6.37
2017-08-01T23:32:56.456Z,7.40
2017-08-01T23:35:25.973Z,7.20
2017-08-01T23:37:56.304Z,7.80
2017-08-01T23:40:26.592Z,6.43
2017-08-01T23:42:56.156Z,7.97
2017-08-01T23:45:25.708Z,6.63
2017-08-01T23:47:55.258Z,6.40
2017-08-01T23:50:25.554Z,5.83
2017-08-01T23:52:55.163Z,6.60
2017-08-01T23:55:24.721Z,6.80
2017-08-01T23:57:54.470Z,6.23
